Time;durP1;ratioP1;P1;durP2;ratioP2;P2;SDS_P1;SDS_P2;PMS_P1;PMS_P2;Temp;Humidity;BMP_temperature;BMP_pressure;BME280_temperature;BME280_humidity;BME280_pressure;Samples;Min_cycle;Max_cycle;Signal;HPM_P1;HPM_P2
2021/01/17 00:00:50;;;;;;;19.52;6.57;;;22.10;49.80;;;;;;4978215;28;20050;-69
2021/01/17 00:03:18;;;;;;;15.88;6.13;;;22.00;49.60;;;;;;4986379;28;20480;-74
2021/01/17 00:05:45;;;;;;;17.65;6.28;;;22.00;49.80;;;;;;4987242;28;20398;-72
2021/01/17 00:08:13;;;;;;;13.95;6.07;;;22.00;49.90;;;;;;4984365;28;20355;-71
2021/01/17 00:10:40;;;;;;;15.98;7.13;;;22.00;49.80;;;;;;4989343;28;20085;-71
2021/01/17 00:13:08;;;;;;;12.27;5.72;;;22.00;49.90;;;;;;4986260;28;20027;-71
2021/01/17 00:15:37;;;;;;;11.27;5.50;;;21.90;50.10;;;;;;4982401;28;20031;-71
2021/01/17 00:18:05;;;;;;;16.00;6.03;;;21.90;50.30;;;;;;4994864;28;20087;-72
2021/01/17 00:20:33;;;;;;;14.73;5.95;;;21.90;50.30;;;;;;4990457;28;20029;-74
2021/01/17 00:23:03;;;;;;;12.05;6.30;;;21.80;50.40;;;;;;4993447;28;20038;-70
2021/01/17 00:25:29;;;;;;;12.38;5.20;;;21.80;50.50;;;;;;4986574;28;20041;-72
2021/01/17 00:27:56;;;;;;;15.98;5.78;;;21.80;50.40;;;;;;4986751;28;20457;-71
2021/01/17 00:30:27;;;;;;;11.25;4.82;;;21.70;50.80;;;;;;4990922;28;20069;-72
2021/01/17 00:32:56;;;;;;;13.27;6.13;;;21.70;50.90;;;;;;4988242;28;20034;-72
2021/01/17 00:35:24;;;;;;;17.13;6.93;;;21.60;51.00;;;;;;4988407;28;20077;-76
2021/01/17 00:37:54;;;;;;;22.92;6.70;;;21.50;51.20;;;;;;4986306;28;20078;-72
2021/01/17 00:40:23;;;;;;;14.40;6.10;;;21.40;51.20;;;;;;4991424;28;20029;-72
2021/01/17 00:42:50;;;;;;;17.90;6.43;;;21.30;51.30;;;;;;4990280;28;20022;-72
2021/01/17 00:45:18;;;;;;;15.35;5.65;;;21.20;51.50;;;;;;4992192;28;20058;-71
2021/01/17 00:47:49;;;;;;;9.98;4.35;;;21.10;51.50;;;;;;4994244;28;20033;-70
2021/01/17 00:50:18;;;;;;;11.98;4.60;;;21.00;51.50;;;;;;4989068;28;20030;-73
2021/01/17 00:52:45;;;;;;;10.15;4.28;;;20.90;51.60;;;;;;4993298;28;20030;-72
2021/01/17 00:55:12;;;;;;;13.13;3.95;;;20.80;51.40;;;;;;4992638;28;20026;-71
2021/01/17 00:57:39;;;;;;;7.13;3.63;;;20.70;51.70;;;;;;4989661;28;20356;-71
2021/01/17 01:00:12;;;;;;;10.07;4.30;;;20.70;51.70;;;;;;4993610;28;20054;-72
2021/01/17 01:02:40;;;;;;;8.88;3.90;;;20.50;51.80;;;;;;4989502;28;20034;-72
2021/01/17 01:05:07;;;;;;;15.98;5.43;;;20.50;51.90;;;;;;4985552;28;20022;-72
2021/01/17 01:07:35;;;;;;;9.48;4.60;;;20.40;52.60;;;;;;4992905;28;20435;-72
2021/01/17 01:10:01;;;;;;;12.50;4.30;;;20.30;52.00;;;;;;4990524;28;20421;-71
2021/01/17 01:12:28;;;;;;;8.60;4.25;;;20.20;52.80;;;;;;4992853;28;20062;-73
2021/01/17 01:14:54;;;;;;;10.02;4.47;;;20.10;52.60;;;;;;4985613;28;20026;-72
2021/01/17 01:17:25;;;;;;;12.38;4.85;;;20.00;52.60;;;;;;4986311;28;20457;-74
2021/01/17 01:19:52;;;;;;;6.35;3.88;;;19.90;52.60;;;;;;4989185;28;20038;-72
2021/01/17 01:22:21;;;;;;;6.93;3.70;;;19.80;52.70;;;;;;4991736;28;20031;-73
2021/01/17 01:24:47;;;;;;;9.68;4.45;;;19.70;52.50;;;;;;4995987;28;20030;-71
2021/01/17 01:27:14;;;;;;;8.15;3.65;;;19.70;52.70;;;;;;4993790;28;20030;-72
2021/01/17 01:29:40;;;;;;;14.48;4.70;;;19.60;52.80;;;;;;4993186;28;20487;-71
2021/01/17 01:32:07;;;;;;;9.30;4.65;;;19.40;54.30;;;;;;4995154;28;20491;-72
2021/01/17 01:34:34;;;;;;;11.32;4.25;;;19.30;54.20;;;;;;4994560;28;20031;-73
2021/01/17 01:37:00;;;;;;;9.32;4.53;;;19.20;53.90;;;;;;4988658;28;20033;-73
2021/01/17 01:39:26;;;;;;;16.20;6.28;;;19.10;54.00;;;;;;4988538;28;20022;-72
2021/01/17 01:41:53;;;;;;;16.67;7.57;;;19.10;54.20;;;;;;4983579;28;20519;-72
2021/01/17 01:44:19;;;;;;;11.05;6.07;;;19.00;54.30;;;;;;4983588;28;20038;-71
2021/01/17 01:46:46;;;;;;;14.38;7.07;;;18.90;54.40;;;;;;4984657;28;20026;-72
2021/01/17 01:49:13;;;;;;;15.55;5.22;;;18.70;55.40;;;;;;4984737;28;20026;-74
2021/01/17 01:51:41;;;;;;;12.80;6.47;;;18.60;55.20;;;;;;4985690;28;20033;-74
2021/01/17 01:54:09;;;;;;;11.98;5.63;;;18.50;55.10;;;;;;4989675;28;20019;-74
2021/01/17 01:56:35;;;;;;;10.50;4.93;;;18.40;55.10;;;;;;5001596;28;20022;-72
2021/01/17 01:59:04;;;;;;;10.25;4.07;;;18.30;55.40;;;;;;4988088;28;20068;-75
2021/01/17 02:01:31;;;;;;;12.93;5.35;;;18.20;55.10;;;;;;4988082;28;20391;-73
2021/01/17 02:03:57;;;;;;;12.32;4.93;;;18.10;55.30;;;;;;4993134;28;20054;-74
2021/01/17 02:06:26;;;;;;;6.82;4.35;;;18.00;55.70;;;;;;4992377;28;20018;-72
2021/01/17 02:09:19;;;;;;;10.77;4.38;;;17.90;55.60;;;;;;4988725;28;20031;-72
2021/01/17 02:11:54;;;;;;;14.75;5.80;;;17.80;55.30;;;;;;4990774;28;20041;-71
2021/01/17 02:14:38;;;;;;;12.02;5.68;;;17.70;56.00;;;;;;4993910;28;20031;-71
2021/01/17 02:17:18;;;;;;;12.88;5.78;;;17.60;56.00;;;;;;4990013;28;20085;-72
2021/01/17 02:20:14;;;;;;;9.90;4.70;;;17.50;55.50;;;;;;4999006;28;20026;-73
2021/01/17 02:23:17;;;;;;;7.63;4.78;;;17.40;55.30;;;;;;4985742;28;20050;-73
2021/01/17 02:25:44;;;;;;;9.35;5.18;;;17.30;55.30;;;;;;4988574;28;20039;-74
2021/01/17 02:28:14;;;;;;;14.73;4.97;;;17.30;56.20;;;;;;4993289;28;20178;-73
2021/01/17 02:30:47;;;;;;;11.45;4.82;;;17.20;56.40;;;;;;4995301;28;20321;-71
2021/01/17 02:33:24;;;;;;;7.30;4.93;;;17.10;56.10;;;;;;4988435;28;20027;-70
2021/01/17 02:35:57;;;;;;;9.90;4.40;;;17.00;56.00;;;;;;4989289;28;20033;-72
2021/01/17 02:39:08;;;;;;;12.30;7.25;;;17.00;56.50;;;;;;4989622;28;20023;-71
2021/01/17 02:41:59;;;;;;;13.88;8.45;;;16.80;57.30;;;;;;4993641;28;20035;-70
2021/01/17 02:44:31;;;;;;;15.82;9.13;;;16.70;57.60;;;;;;4988421;28;20364;-71
2021/01/17 02:46:58;;;;;;;15.15;8.85;;;16.60;57.10;;;;;;4995893;28;20022;-70
2021/01/17 02:49:28;;;;;;;14.73;8.40;;;16.50;57.90;;;;;;4987251;28;20027;-72
2021/01/17 02:51:54;;;;;;;13.85;8.45;;;16.40;57.20;;;;;;4979443;28;20042;-72
2021/01/17 02:54:35;;;;;;;12.43;7.93;;;16.40;57.90;;;;;;4992010;28;20030;-72
2021/01/17 02:57:07;;;;;;;11.77;4.97;;;16.30;57.70;;;;;;4997226;28;20093;-72
2021/01/17 03:00:07;;;;;;;12.37;5.60;;;16.30;57.40;;;;;;4995415;28;20376;-71
2021/01/17 03:02:43;;;;;;;13.00;6.35;;;16.20;57.00;;;;;;4989568;28;20096;-70
2021/01/17 03:05:16;;;;;;;15.10;6.20;;;16.20;57.30;;;;;;4991413;28;20022;-73
2021/01/17 03:07:54;;;;;;;18.60;6.53;;;16.20;57.40;;;;;;4988414;28;20032;-76
2021/01/17 03:10:22;;;;;;;18.30;8.35;;;16.10;57.20;;;;;;4986615;28;20058;-72
2021/01/17 03:12:49;;;;;;;20.52;6.85;;;16.10;57.20;;;;;;4991896;28;20030;-71
2021/01/17 03:15:19;;;;;;;13.57;8.13;;;15.90;57.80;;;;;;4995083;28;20027;-71
2021/01/17 03:17:49;;;;;;;16.83;8.50;;;15.90;58.10;;;;;;4986933;28;20179;-70
2021/01/17 03:20:15;;;;;;;18.92;9.20;;;15.90;55.80;;;;;;4992485;28;20022;-70
2021/01/17 03:22:42;;;;;;;13.60;6.80;;;15.90;57.40;;;;;;4986524;28;20089;-70
2021/01/17 03:25:08;;;;;;;15.43;7.22;;;15.80;57.60;;;;;;4987858;28;20049;-70
2021/01/17 03:27:35;;;;;;;12.80;5.72;;;15.60;59.20;;;;;;4991900;28;20031;-70
2021/01/17 03:30:04;;;;;;;9.27;5.85;;;15.30;61.40;;;;;;4990016;28;20046;-72
2021/01/17 03:32:31;;;;;;;11.43;6.03;;;15.20;61.00;;;;;;4992969;28;20387;-70
2021/01/17 03:34:57;;;;;;;10.00;5.13;;;15.20;61.20;;;;;;4998915;28;20507;-71
2021/01/17 03:37:24;;;;;;;13.00;6.35;;;15.20;60.20;;;;;;4988824;28;20069;-71
2021/01/17 03:39:50;;;;;;;13.00;5.80;;;15.20;59.70;;;;;;4990289;28;20030;-71
2021/01/17 03:42:16;;;;;;;12.55;5.88;;;15.20;59.40;;;;;;4985334;28;20122;-72
2021/01/17 03:44:43;;;;;;;12.13;4.65;;;15.20;59.70;;;;;;4986716;28;20502;-71
2021/01/17 03:47:28;;;;;;;13.93;6.15;;;15.00;61.30;;;;;;4988769;28;20022;-71
2021/01/17 03:49:54;;;;;;;10.52;5.57;;;14.80;62.60;;;;;;4991312;28;20538;-71
2021/01/17 03:52:20;;;;;;;17.63;7.45;;;14.70;64.80;;;;;;4986729;28;20110;-71
2021/01/17 03:54:50;;;;;;;30.77;15.98;;;14.70;64.40;;;;;;4992351;28;20341;-73
2021/01/17 03:57:17;;;;;;;22.35;10.63;;;14.70;63.50;;;;;;4989546;28;20022;-71
2021/01/17 03:59:43;;;;;;;21.83;10.38;;;14.80;61.50;;;;;;4989886;28;20034;-71
2021/01/17 04:02:10;;;;;;;14.95;9.02;;;14.80;61.30;;;;;;4991094;28;20084;-71
2021/01/17 04:04:36;;;;;;;20.30;8.02;;;14.80;61.10;;;;;;4988013;28;20102;-72
2021/01/17 04:07:03;;;;;;;17.15;7.50;;;14.80;62.60;;;;;;4978489;28;20045;-71
2021/01/17 04:09:29;;;;;;;16.67;7.35;;;14.80;62.20;;;;;;4990572;28;20019;-72
2021/01/17 04:11:56;;;;;;;16.23;7.20;;;14.80;61.10;;;;;;4993116;28;20045;-71
2021/01/17 04:14:22;;;;;;;9.10;5.70;;;14.80;60.80;;;;;;4984280;28;20069;-70
2021/01/17 04:16:52;;;;;;;10.55;6.25;;;14.80;61.20;;;;;;4989191;28;20034;-72
2021/01/17 04:19:19;;;;;;;13.40;7.80;;;14.80;61.50;;;;;;4987416;28;20037;-73
2021/01/17 04:21:46;;;;;;;12.25;6.72;;;14.80;60.60;;;;;;4988000;28;20030;-71
2021/01/17 04:24:13;;;;;;;15.13;6.40;;;14.80;57.70;;;;;;4985728;28;20031;-72
2021/01/17 04:26:39;;;;;;;14.13;6.82;;;14.90;58.10;;;;;;4991221;28;20033;-73
2021/01/17 04:29:06;;;;;;;18.25;6.78;;;14.90;58.10;;;;;;4991303;28;20022;-71
2021/01/17 04:31:45;;;;;;;13.82;7.10;;;14.80;60.00;;;;;;4987849;28;20072;-70
2021/01/17 04:34:11;;;;;;;9.77;6.03;;;14.60;59.30;;;;;;4994833;28;20400;-74
2021/01/17 04:36:38;;;;;;;9.95;5.95;;;14.40;60.70;;;;;;4992611;28;20022;-74
2021/01/17 04:39:05;;;;;;;10.38;6.28;;;14.40;60.80;;;;;;4987060;28;20348;-73
2021/01/17 04:41:34;;;;;;;12.60;5.70;;;14.30;61.00;;;;;;4993102;28;20360;-70
2021/01/17 04:44:05;;;;;;;7.57;5.68;;;14.20;61.40;;;;;;4984598;28;20034;-71
2021/01/17 04:46:32;;;;;;;15.73;6.97;;;14.10;61.70;;;;;;4984676;28;20065;-72
2021/01/17 04:49:01;;;;;;;13.35;6.22;;;14.10;61.10;;;;;;4992950;28;20027;-72
2021/01/17 04:51:28;;;;;;;16.98;6.45;;;14.10;61.80;;;;;;4982643;28;20034;-70
2021/01/17 04:53:59;;;;;;;12.68;6.30;;;14.00;61.80;;;;;;4987851;28;20026;-70
2021/01/17 04:56:38;;;;;;;8.32;5.40;;;13.90;61.50;;;;;;4992298;28;20026;-71
2021/01/17 04:59:14;;;;;;;13.18;5.93;;;13.90;61.60;;;;;;4990654;28;20026;-71
2021/01/17 05:01:47;;;;;;;13.73;6.43;;;13.90;60.80;;;;;;4983257;28;20061;-70
2021/01/17 05:04:32;;;;;;;15.35;6.68;;;14.00;61.20;;;;;;4986202;28;20022;-70
2021/01/17 05:06:59;;;;;;;10.60;5.95;;;13.90;60.20;;;;;;4987344;28;20479;-70
2021/01/17 05:09:43;;;;;;;12.82;5.97;;;13.90;61.50;;;;;;4991270;28;20038;-69
2021/01/17 05:12:15;;;;;;;10.48;4.70;;;13.80;61.20;;;;;;4984695;28;20034;-71
2021/01/17 05:14:54;;;;;;;12.33;6.57;;;13.70;61.60;;;;;;4986579;28;20050;-69
2021/01/17 05:17:25;;;;;;;12.55;7.07;;;13.70;59.50;;;;;;4993068;28;20027;-69
2021/01/17 05:19:51;;;;;;;15.60;7.00;;;13.70;61.30;;;;;;4991105;28;20026;-72
2021/01/17 05:22:20;;;;;;;12.90;6.28;;;13.70;60.80;;;;;;4990719;28;20027;-69
2021/01/17 05:24:53;;;;;;;15.70;5.80;;;13.60;61.70;;;;;;4987648;28;20034;-69
2021/01/17 05:27:20;;;;;;;13.80;6.28;;;13.60;61.60;;;;;;4989979;28;20076;-70
2021/01/17 05:29:46;;;;;;;15.73;6.55;;;13.50;60.30;;;;;;4989926;28;20030;-70
2021/01/17 05:32:15;;;;;;;18.10;6.13;;;13.60;60.30;;;;;;4988684;28;20019;-72
2021/01/17 05:34:42;;;;;;;11.20;5.45;;;13.60;60.50;;;;;;4992787;28;20033;-70
2021/01/17 05:37:10;;;;;;;13.23;6.15;;;13.60;60.20;;;;;;4988758;28;20093;-70
2021/01/17 05:39:59;;;;;;;9.57;4.95;;;13.40;62.30;;;;;;4991642;28;20121;-71
2021/01/17 05:42:30;;;;;;;12.35;6.63;;;13.30;62.20;;;;;;4991127;28;20041;-71
2021/01/17 05:45:15;;;;;;;11.80;5.75;;;13.30;62.50;;;;;;4992393;28;20026;-71
2021/01/17 05:47:51;;;;;;;8.57;5.03;;;13.20;62.70;;;;;;4990853;28;20085;-74
2021/01/17 05:50:18;;;;;;;14.27;5.78;;;13.20;62.80;;;;;;4996757;28;20038;-70
2021/01/17 05:52:50;;;;;;;16.08;7.60;;;13.30;60.80;;;;;;4995942;28;20034;-70
2021/01/17 05:55:17;;;;;;;8.73;5.65;;;13.20;62.50;;;;;;4996184;28;20038;-69
2021/01/17 05:57:43;;;;;;;10.82;5.82;;;13.20;62.00;;;;;;4997691;28;20045;-71
2021/01/17 06:00:11;;;;;;;17.67;5.28;;;13.20;62.80;;;;;;4998066;28;20026;-69
2021/01/17 06:02:41;;;;;;;12.98;6.05;;;13.20;62.70;;;;;;4997419;28;20096;-71
2021/01/17 06:05:10;;;;;;;10.55;4.43;;;13.20;62.50;;;;;;4998636;28;20451;-72
2021/01/17 06:07:38;;;;;;;8.60;5.03;;;13.10;63.80;;;;;;4998074;28;20030;-72
2021/01/17 06:10:08;;;;;;;10.18;4.88;;;13.00;63.20;;;;;;4996311;28;20054;-70
2021/01/17 06:12:36;;;;;;;11.23;5.10;;;13.00;63.20;;;;;;4996912;28;20474;-71
2021/01/17 06:15:04;;;;;;;6.65;4.88;;;13.00;63.10;;;;;;4996488;28;20089;-68
2021/01/17 06:17:37;;;;;;;6.82;4.28;;;13.00;62.90;;;;;;4994115;28;20240;-69
2021/01/17 06:20:08;;;;;;;15.60;5.50;;;13.00;62.90;;;;;;4995994;28;20032;-68
2021/01/17 06:22:36;;;;;;;8.55;5.25;;;12.90;63.10;;;;;;4991753;28;20044;-71
2021/01/17 06:25:06;;;;;;;7.90;4.95;;;13.00;63.00;;;;;;4992197;28;20056;-71
2021/01/17 06:27:33;;;;;;;8.93;5.68;;;12.90;63.10;;;;;;4994700;28;20034;-70
2021/01/17 06:29:59;;;;;;;11.00;4.57;;;12.90;63.00;;;;;;4995304;28;20037;-71
2021/01/17 06:32:30;;;;;;;8.68;4.68;;;12.90;63.10;;;;;;4992444;28;20030;-71
2021/01/17 06:34:58;;;;;;;8.35;4.40;;;12.90;63.20;;;;;;4996982;28;20415;-72
2021/01/17 06:37:28;;;;;;;4.82;3.75;;;12.90;62.80;;;;;;4997277;28;20058;-71
2021/01/17 06:39:57;;;;;;;7.45;5.15;;;12.90;63.30;;;;;;4994227;28;20050;-70
2021/01/17 06:42:27;;;;;;;6.82;4.25;;;12.90;63.10;;;;;;4984320;28;20409;-72
2021/01/17 06:44:53;;;;;;;9.38;4.05;;;12.80;63.10;;;;;;4993638;28;20414;-71
2021/01/17 06:47:22;;;;;;;8.57;4.43;;;12.90;63.80;;;;;;4989695;28;20084;-72
2021/01/17 06:49:56;;;;;;;11.73;3.30;;;12.90;60.90;;;;;;4989506;28;20113;-72
2021/01/17 06:52:23;;;;;;;14.00;4.63;;;12.80;63.30;;;;;;4989349;28;20056;-71
2021/01/17 06:54:53;;;;;;;15.38;6.22;;;12.80;62.40;;;;;;4995664;28;20147;-70
2021/01/17 06:57:21;;;;;;;7.75;4.03;;;12.80;63.80;;;;;;4997404;28;20105;-70
2021/01/17 06:59:49;;;;;;;11.23;4.88;;;12.80;63.50;;;;;;4991798;28;20018;-70
2021/01/17 07:02:15;;;;;;;8.85;3.85;;;12.90;61.50;;;;;;4994463;28;20031;-71
2021/01/17 07:04:54;;;;;;;11.32;5.15;;;13.00;63.00;;;;;;4993356;28;20019;-71
2021/01/17 07:07:45;;;;;;;14.25;5.65;;;13.00;61.20;;;;;;4994374;28;20031;-72
2021/01/17 07:10:12;;;;;;;14.05;4.35;;;13.20;61.90;;;;;;4993250;28;20042;-70
2021/01/17 07:12:52;;;;;;;13.23;4.15;;;13.10;62.00;;;;;;4994988;28;20449;-71
2021/01/17 07:15:28;;;;;;;9.68;4.40;;;13.20;62.50;;;;;;4992557;28;20054;-70
2021/01/17 07:18:12;;;;;;;10.43;5.15;;;13.20;61.30;;;;;;4995275;28;20058;-71
2021/01/17 07:20:48;;;;;;;10.57;4.72;;;13.20;62.40;;;;;;4984570;28;20018;-71
2021/01/17 07:23:16;;;;;;;11.00;5.85;;;13.20;62.80;;;;;;4993389;28;20341;-71
2021/01/17 07:25:48;;;;;;;11.27;4.20;;;13.10;63.60;;;;;;4993776;28;20041;-71
2021/01/17 07:28:20;;;;;;;10.32;4.78;;;13.00;64.20;;;;;;4995274;28;20022;-71
2021/01/17 07:30:52;;;;;;;19.40;8.00;;;13.00;64.00;;;;;;4996949;28;20368;-72
2021/01/17 07:33:26;;;;;;;;;;;12.90;63.70;;;;;;4994848;28;20033;-71
2021/01/17 07:35:54;;;;;;;18.05;8.45;;;12.90;62.90;;;;;;4995823;28;19917;-70
2021/01/17 07:38:22;;;;;;;10.38;5.30;;;12.80;63.80;;;;;;4994148;28;20068;-71
2021/01/17 07:40:57;;;;;;;7.18;4.75;;;12.80;63.40;;;;;;4987524;28;20022;-70
2021/01/17 07:43:37;;;;;;;9.13;4.35;;;12.80;63.60;;;;;;4993052;28;20445;-71
2021/01/17 07:46:09;;;;;;;16.98;4.93;;;12.80;63.30;;;;;;4990304;28;20109;-70
2021/01/17 07:48:36;;;;;;;12.60;6.27;;;12.80;61.70;;;;;;4987901;28;20103;-70
2021/01/17 07:51:07;;;;;;;15.93;6.07;;;12.90;62.10;;;;;;4992374;28;20026;-70
2021/01/17 07:53:39;;;;;;;9.90;4.28;;;12.90;61.50;;;;;;4994754;28;20045;-70
2021/01/17 07:56:25;;;;;;;9.60;4.93;;;12.80;62.70;;;;;;4993618;28;20109;-70
2021/01/17 07:58:53;;;;;;;10.90;3.80;;;12.70;61.60;;;;;;4986908;28;20046;-70
2021/01/17 08:01:35;;;;;;;13.00;3.47;;;12.70;63.60;;;;;;4996464;28;20010;-70
2021/01/17 08:04:04;;;;;;;8.80;4.28;;;12.60;63.40;;;;;;4992105;28;20035;-70
2021/01/17 08:06:36;;;;;;;14.55;4.00;;;12.70;62.10;;;;;;4991261;28;20409;-70
2021/01/17 08:09:07;;;;;;;7.68;4.10;;;12.80;62.10;;;;;;4991190;28;20037;-70
2021/01/17 08:11:56;;;;;;;12.38;5.80;;;12.80;61.90;;;;;;4990176;28;20456;-70
2021/01/17 08:15:09;;;;;;;12.43;5.10;;;12.70;62.10;;;;;;4993364;28;20057;-71
2021/01/17 08:17:38;;;;;;;11.80;5.43;;;12.70;62.20;;;;;;4991375;28;20022;-71
2021/01/17 08:20:06;;;;;;;8.68;4.10;;;12.70;62.10;;;;;;4999560;28;20054;-70
2021/01/17 08:22:33;;;;;;;11.40;4.35;;;12.50;64.00;;;;;;4995493;28;20041;-70
2021/01/17 08:25:05;;;;;;;7.05;4.90;;;12.50;64.30;;;;;;4996248;28;20102;-70
2021/01/17 08:27:33;;;;;;;9.98;4.50;;;12.40;63.40;;;;;;4994833;28;20627;-71
2021/01/17 08:30:08;;;;;;;8.35;4.90;;;12.50;62.90;;;;;;4996849;28;20084;-72
2021/01/17 08:32:57;;;;;;;7.10;4.07;;;12.50;64.30;;;;;;4998619;28;20038;-73
2021/01/17 08:35:23;;;;;;;9.43;4.70;;;12.40;62.80;;;;;;4991905;28;20117;-70
2021/01/17 08:37:54;;;;;;;14.50;4.65;;;12.40;63.00;;;;;;5003545;28;20030;-71
2021/01/17 08:40:29;;;;;;;10.27;4.57;;;12.40;62.40;;;;;;4997130;28;20125;-70
2021/01/17 08:43:00;;;;;;;7.95;4.82;;;12.40;63.80;;;;;;4996766;28;20060;-71
2021/01/17 08:45:26;;;;;;;9.27;4.85;;;12.40;62.60;;;;;;4988822;28;20038;-70
2021/01/17 08:48:19;;;;;;;9.63;4.32;;;12.40;62.90;;;;;;4993643;28;20029;-70
2021/01/17 08:50:47;;;;;;;12.88;5.25;;;12.30;63.50;;;;;;4994623;28;20436;-70
2021/01/17 08:53:16;;;;;;;7.63;4.22;;;12.40;63.60;;;;;;4996015;28;20077;-70
2021/01/17 08:55:44;;;;;;;7.88;3.92;;;12.50;63.60;;;;;;4989012;28;20041;-70
2021/01/17 08:58:17;;;;;;;12.55;4.50;;;12.50;64.40;;;;;;4988908;28;20026;-70
2021/01/17 09:00:49;;;;;;;;;;;12.40;63.10;;;;;;4991691;28;20034;-70
2021/01/17 09:03:26;;;;;;;6.40;3.50;;;12.40;63.40;;;;;;4994608;28;19968;-70
2021/01/17 09:06:11;;;;;;;7.65;3.40;;;12.30;65.10;;;;;;4993431;28;20030;-70
2021/01/17 09:09:01;;;;;;;9.98;5.03;;;12.20;65.60;;;;;;4992143;28;20030;-70
2021/01/17 09:11:28;;;;;;;7.65;4.75;;;12.20;65.00;;;;;;4994006;28;20396;-71
2021/01/17 09:14:26;;;;;;;10.38;3.75;;;12.20;64.80;;;;;;4989613;28;20430;-70
2021/01/17 09:16:57;;;;;;;9.98;4.68;;;12.10;64.10;;;;;;4991560;28;20026;-70
2021/01/17 09:19:29;;;;;;;6.47;3.63;;;12.20;63.50;;;;;;4995156;28;20088;-71
2021/01/17 09:21:56;;;;;;;;;;;12.20;65.10;;;;;;4994433;28;20026;-70
2021/01/17 09:24:26;;;;;;;5.65;3.65;;;12.10;64.40;;;;;;4998586;28;19910;-71
2021/01/17 09:26:57;;;;;;;8.38;4.00;;;12.00;63.40;;;;;;4993129;28;20026;-70
2021/01/17 09:29:27;;;;;;;8.38;3.83;;;12.00;65.20;;;;;;4995920;28;20054;-71
2021/01/17 09:32:13;;;;;;;11.48;4.25;;;12.10;65.00;;;;;;4999846;28;20038;-70
2021/01/17 09:34:58;;;;;;;6.43;4.28;;;12.00;64.00;;;;;;4997448;28;20038;-70
2021/01/17 09:37:24;;;;;;;9.90;4.80;;;11.90;63.50;;;;;;4999405;28;20034;-70
2021/01/17 09:39:52;;;;;;;6.10;3.08;;;11.90;64.10;;;;;;4998843;28;20037;-70
2021/01/17 09:42:23;;;;;;;12.18;4.03;;;11.90;66.40;;;;;;4999088;28;20030;-70
2021/01/17 09:45:00;;;;;;;5.65;3.30;;;11.80;67.10;;;;;;4997464;28;20023;-70
2021/01/17 09:47:29;;;;;;;7.07;4.60;;;11.80;66.30;;;;;;4997156;28;20026;-71
2021/01/17 09:50:05;;;;;;;8.38;4.25;;;11.80;65.80;;;;;;4997370;28;20027;-71
2021/01/17 09:52:40;;;;;;;14.18;4.25;;;11.80;65.70;;;;;;4999184;28;20034;-70
2021/01/17 09:55:11;;;;;;;8.20;4.55;;;11.90;64.40;;;;;;4996365;28;20022;-70
2021/01/17 09:57:39;;;;;;;9.07;4.15;;;12.10;64.50;;;;;;4995371;28;20018;-70
2021/01/17 10:00:23;;;;;;;15.95;4.53;;;12.10;64.10;;;;;;4997995;28;20023;-70
2021/01/17 10:02:51;;;;;;;7.25;4.20;;;12.10;64.50;;;;;;4996039;28;20113;-70
2021/01/17 10:05:30;;;;;;;14.30;5.63;;;12.00;64.00;;;;;;4998445;28;20026;-71
2021/01/17 10:08:04;;;;;;;7.45;4.45;;;12.20;65.00;;;;;;4997808;28;20041;-70
2021/01/17 10:10:34;;;;;;;9.32;4.93;;;12.20;65.70;;;;;;4998008;28;20122;-71
2021/01/17 10:13:01;;;;;;;10.40;4.63;;;12.10;64.80;;;;;;4997750;28;20026;-70
2021/01/17 10:15:28;;;;;;;10.02;4.43;;;12.30;66.30;;;;;;4998025;28;20057;-70
2021/01/17 10:17:55;;;;;;;17.30;5.35;;;12.50;65.30;;;;;;4997234;28;20026;-70
2021/01/17 10:20:29;;;;;;;10.98;5.80;;;12.70;66.30;;;;;;4998433;28;20479;-71
2021/01/17 10:23:03;;;;;;;8.88;4.28;;;12.90;66.20;;;;;;4997392;28;20154;-70
2021/01/17 10:25:31;;;;;;;10.00;4.32;;;13.00;65.80;;;;;;4996554;28;20036;-70
2021/01/17 10:28:00;;;;;;;8.77;4.05;;;13.10;66.10;;;;;;4993335;28;20026;-70
2021/01/17 10:30:31;;;;;;;12.75;5.55;;;13.10;66.00;;;;;;4995696;28;20058;-69
2021/01/17 10:33:09;;;;;;;9.75;4.03;;;13.20;66.00;;;;;;4997106;28;20037;-70
2021/01/17 10:35:42;;;;;;;12.77;4.68;;;13.30;65.40;;;;;;4993939;28;20022;-70
2021/01/17 10:38:10;;;;;;;9.90;4.78;;;13.30;65.10;;;;;;4985851;28;20056;-71
2021/01/17 10:40:38;;;;;;;7.30;3.83;;;13.20;64.50;;;;;;4997407;28;20019;-70
2021/01/17 10:43:07;;;;;;;12.52;4.50;;;12.90;65.50;;;;;;4997624;28;20026;-70
2021/01/17 10:45:35;;;;;;;11.50;4.63;;;12.80;65.30;;;;;;4997828;28;20033;-70
2021/01/17 10:48:12;;;;;;;13.43;5.03;;;13.00;65.30;;;;;;4997354;28;20030;-71
2021/01/17 10:50:48;;;;;;;8.52;4.10;;;12.80;65.30;;;;;;4995558;28;20121;-70
2021/01/17 10:53:30;;;;;;;7.80;4.22;;;12.90;65.30;;;;;;4997098;28;20026;-71
2021/01/17 10:55:59;;;;;;;10.40;4.88;;;13.00;65.20;;;;;;4997421;28;20478;-70
2021/01/17 10:58:41;;;;;;;18.73;5.15;;;12.90;64.60;;;;;;4996405;28;20026;-70
2021/01/17 11:01:07;;;;;;;6.53;4.30;;;13.00;65.10;;;;;;4997356;28;20022;-70
2021/01/17 11:03:36;;;;;;;5.55;4.07;;;12.90;64.80;;;;;;4996143;28;20034;-70
2021/01/17 11:06:13;;;;;;;17.30;4.60;;;13.00;65.80;;;;;;4997086;28;20038;-71
2021/01/17 11:08:54;;;;;;;6.47;4.13;;;13.20;65.20;;;;;;4996080;28;20030;-70
2021/01/17 11:11:22;;;;;;;7.75;4.07;;;13.10;64.20;;;;;;4996633;28;20057;-70
2021/01/17 11:14:07;;;;;;;10.93;5.90;;;13.20;64.70;;;;;;4997545;28;20048;-70
2021/01/17 11:16:37;;;;;;;11.23;4.45;;;13.40;64.00;;;;;;4994435;28;20022;-70
2021/01/17 11:19:05;;;;;;;8.73;4.85;;;13.50;63.70;;;;;;4996061;28;20014;-70
2021/01/17 11:21:33;;;;;;;8.77;4.00;;;13.60;63.40;;;;;;4987953;28;20053;-71
2021/01/17 11:24:01;;;;;;;8.40;3.28;;;13.60;63.30;;;;;;4996314;28;20359;-71
2021/01/17 11:26:28;;;;;;;5.07;3.42;;;13.60;63.00;;;;;;4995420;28;20349;-71
2021/01/17 11:28:56;;;;;;;9.77;3.30;;;13.70;62.80;;;;;;4999310;28;20066;-72
2021/01/17 11:31:24;;;;;;;5.70;3.05;;;13.70;62.80;;;;;;4996093;28;20026;-70
2021/01/17 11:33:51;;;;;;;4.40;3.30;;;13.70;62.70;;;;;;4996698;28;20084;-70
2021/01/17 11:36:21;;;;;;;7.20;3.97;;;13.50;62.70;;;;;;4997091;28;20488;-70
2021/01/17 11:38:57;;;;;;;12.40;3.70;;;13.50;62.80;;;;;;4997565;28;20022;-70
2021/01/17 11:41:42;;;;;;;7.47;3.58;;;13.60;62.80;;;;;;4996608;28;20452;-70
2021/01/17 11:44:21;;;;;;;6.25;3.58;;;13.50;62.70;;;;;;4989345;28;20031;-70
2021/01/17 11:46:49;;;;;;;6.03;2.95;;;13.40;62.90;;;;;;4990551;28;20113;-70
2021/01/17 11:49:20;;;;;;;9.27;3.25;;;13.30;63.10;;;;;;4995229;28;20105;-70
2021/01/17 11:51:47;;;;;;;5.82;2.90;;;13.30;63.00;;;;;;4995616;28;20034;-70
2021/01/17 11:54:26;;;;;;;6.78;4.15;;;13.40;63.00;;;;;;4995495;28;20069;-70
2021/01/17 11:57:04;;;;;;;3.90;3.28;;;13.50;62.30;;;;;;4996581;28;20105;-70
2021/01/17 11:59:32;;;;;;;5.60;3.25;;;13.60;61.80;;;;;;4995607;28;20464;-70
2021/01/17 12:02:23;;;;;;;8.75;3.55;;;13.50;62.20;;;;;;4994977;28;20026;-70
2021/01/17 12:04:59;;;;;;;8.48;3.08;;;13.60;62.10;;;;;;4994154;28;20041;-72
2021/01/17 12:07:26;;;;;;;7.32;3.40;;;13.50;61.80;;;;;;4989225;28;20510;-71
2021/01/17 12:10:22;;;;;;;3.92;3.55;;;13.60;61.70;;;;;;4998407;28;20066;-72
2021/01/17 12:12:48;;;;;;;4.82;3.00;;;13.40;61.80;;;;;;4998699;28;20042;-72
2021/01/17 12:15:15;;;;;;;3.90;3.22;;;13.30;62.00;;;;;;4993091;28;20057;-71
2021/01/17 12:17:42;;;;;;;7.18;3.67;;;13.20;62.20;;;;;;4995967;28;20052;-71
2021/01/17 12:20:09;;;;;;;5.60;3.55;;;13.10;63.00;;;;;;4994537;28;20037;-70
2021/01/17 12:22:35;;;;;;;4.45;3.35;;;13.10;62.60;;;;;;4995125;28;20023;-70
2021/01/17 12:25:02;;;;;;;5.28;2.60;;;13.20;62.60;;;;;;4994563;28;20022;-71
2021/01/17 12:27:28;;;;;;;5.43;3.38;;;13.10;62.30;;;;;;4988724;28;20018;-70
2021/01/17 12:29:55;;;;;;;15.88;3.72;;;13.20;62.10;;;;;;4996289;28;20037;-71
2021/01/17 12:32:21;;;;;;;3.90;2.67;;;13.20;61.80;;;;;;4995225;28;20487;-70
2021/01/17 12:34:48;;;;;;;6.32;2.80;;;13.10;61.70;;;;;;4995742;28;20023;-70
2021/01/17 12:37:14;;;;;;;4.63;2.63;;;13.00;62.40;;;;;;4995107;28;20019;-70
2021/01/17 12:39:41;;;;;;;6.60;3.20;;;12.90;62.60;;;;;;4996015;28;20031;-70
2021/01/17 12:42:07;;;;;;;7.43;3.40;;;12.80;62.60;;;;;;4994227;28;20050;-70
2021/01/17 12:44:34;;;;;;;2.70;2.20;;;12.90;62.10;;;;;;4992955;28;20113;-70
2021/01/17 12:47:00;;;;;;;4.50;3.03;;;12.80;62.60;;;;;;4994483;28;20026;-70
2021/01/17 12:49:26;;;;;;;5.93;3.28;;;12.80;62.90;;;;;;4995267;28;20117;-70
2021/01/17 12:51:53;;;;;;;5.53;2.90;;;12.80;62.30;;;;;;4996218;28;20034;-70
2021/01/17 12:54:19;;;;;;;5.97;2.97;;;12.70;62.90;;;;;;4996265;28;20048;-70
2021/01/17 12:56:46;;;;;;;3.33;2.78;;;12.80;62.60;;;;;;4993067;28;20023;-71
2021/01/17 12:59:12;;;;;;;3.88;3.50;;;12.80;62.30;;;;;;4995217;28;21073;-70
2021/01/17 13:01:38;;;;;;;3.50;3.13;;;12.90;61.70;;;;;;4995038;28;20472;-70